Time,TemperatureF,DewpointF,PressureIn,WindDirection,WindDirectionDegrees,WindSpeedMPH,WindSpeedGustMPH,Humidity,HourlyPrecipIn,Conditions,Clouds,dailyrainin,SoftwareType,DateUTC
2013-01-07 00:04:00,35.0,33.2,30.18,North,351,0.0,1.0,93,0.00,,---,0.00,VWS V14.01,2013-01-07 08:04:00,
2013-01-07 00:09:00,35.0,32.9,30.16,North,351,0.0,1.0,92,0.00,,---,0.00,VWS V14.01,2013-01-07 08:09:00,
2013-01-07 00:14:00,34.9,32.8,30.16,North,351,1.0,1.0,92,0.00,,---,0.00,VWS V14.01,2013-01-07 08:14:00,
2013-01-07 00:19:00,34.9,32.8,30.16,North,351,0.0,1.0,92,0.00,,---,0.00,VWS V14.01,2013-01-07 08:19:00,
2013-01-07 00:24:00,34.9,32.8,30.16,North,351,0.0,1.0,92,0.00,,---,0.00,VWS V14.01,2013-01-07 08:24:00,
2013-01-07 00:29:00,34.9,32.8,30.15,North,351,1.0,3.0,92,0.00,,---,0.00,VWS V14.01,2013-01-07 08:29:00,
2013-01-07 00:34:00,34.7,32.6,30.17,North,351,0.0,3.0,92,0.00,,---,0.00,VWS V14.01,2013-01-07 08:34:00,
2013-01-07 00:40:00,34.7,32.6,30.16,North,351,2.0,3.0,92,0.00,,---,0.00,VWS V14.01,2013-01-07 08:40:00,
2013-01-07 00:45:00,34.7,32.6,30.17,North,351,1.0,3.0,92,0.00,,---,0.00,VWS V14.01,2013-01-07 08:45:00,
2013-01-07 00:50:00,34.5,32.4,30.17,North,351,1.0,3.0,92,0.00,,---,0.00,VWS V14.01,2013-01-07 08:50:00,
2013-01-07 00:55:00,34.6,32.5,30.17,North,351,1.0,3.0,92,0.00,,---,0.00,VWS V14.01,2013-01-07 08:55:00,
2013-01-07 01:00:00,34.7,32.6,30.18,North,351,0.0,3.0,92,0.00,,---,0.00,VWS V14.01,2013-01-07 09:00:00,
2013-01-07 01:05:00,34.7,32.9,30.16,North,351,0.0,0.0,93,0.00,,---,0.00,VWS V14.01,2013-01-07 09:05:00,
2013-01-07 01:10:00,34.8,32.7,30.17,North,351,0.0,1.0,92,0.00,,---,0.00,VWS V14.01,2013-01-07 09:10:00,
2013-01-07 01:15:00,34.9,33.1,30.18,North,351,0.0,1.0,93,0.00,,---,0.00,VWS V14.01,2013-01-07 09:15:00,
2013-01-07 01:20:00,35.0,33.2,30.17,North,351,0.0,2.0,93,0.00,,---,0.00,VWS V14.01,2013-01-07 09:20:00,
2013-01-07 01:25:00,35.0,33.2,30.17,North,351,0.0,2.0,93,0.00,,---,0.00,VWS V14.01,2013-01-07 09:25:00,
2013-01-07 01:30:00,34.9,32.8,30.19,North,351,0.0,0.0,92,0.00,,---,0.00,VWS V14.01,2013-01-07 09:30:00,
2013-01-07 01:35:00,34.9,33.1,30.17,North,351,0.0,0.0,93,0.00,,---,0.00,VWS V14.01,2013-01-07 09:35:00,
2013-01-07 01:40:00,34.9,33.1,30.17,North,351,1.0,2.0,93,0.00,,---,0.00,VWS V14.01,2013-01-07 09:40:00,
2013-01-07 01:45:00,34.9,33.1,30.18,North,351,0.0,2.0,93,0.00,,---,0.00,VWS V14.01,2013-01-07 09:45:00,
2013-01-07 01:50:00,34.8,32.7,30.17,North,351,1.0,3.0,92,0.00,,---,0.00,VWS V14.01,2013-01-07 09:50:00,
2013-01-07 01:55:00,34.6,32.8,30.16,North,351,0.0,3.0,93,0.00,,---,0.00,VWS V14.01,2013-01-07 09:55:00,
2013-01-07 02:00:00,34.5,32.7,30.18,North,351,0.0,0.0,93,0.00,,---,0.00,VWS V14.01,2013-01-07 10:00:00,
2013-01-07 02:05:00,34.3,32.5,30.17,North,351,0.0,0.0,93,0.00,,---,0.00,VWS V14.01,2013-01-07 10:05:00,
2013-01-07 02:10:00,34.2,32.1,30.18,North,351,0.0,1.0,92,0.00,,---,0.00,VWS V14.01,2013-01-07 10:10:00,
2013-01-07 02:16:00,34.1,32.0,30.17,North,351,0.0,1.0,92,0.00,,---,0.00,VWS V14.01,2013-01-07 10:16:00,
2013-01-07 02:21:00,34.0,31.9,30.17,North,351,0.0,2.0,92,0.00,,---,0.00,VWS V14.01,2013-01-07 10:21:00,
2013-01-07 02:26:00,33.7,31.6,30.18,North,351,0.0,3.0,92,0.00,,---,0.00,VWS V14.01,2013-01-07 10:26:00,
2013-01-07 02:31:00,33.6,31.5,30.17,North,351,0.0,0.0,92,0.00,,---,0.00,VWS V14.01,2013-01-07 10:31:00,
2013-01-07 02:36:00,33.6,31.5,30.17,North,351,0.0,1.0,92,0.00,,---,0.00,VWS V14.01,2013-01-07 10:36:00,
2013-01-07 02:41:00,33.5,31.4,30.19,North,351,0.0,1.0,92,0.00,,---,0.00,VWS V14.01,2013-01-07 10:41:00,
2013-01-07 02:46:00,33.5,31.4,30.19,North,351,0.0,1.0,92,0.00,,---,0.00,VWS V14.01,2013-01-07 10:46:00,
2013-01-07 02:51:00,33.6,31.8,30.19,North,351,0.0,1.0,93,0.00,,---,0.00,VWS V14.01,2013-01-07 10:51:00,
2013-01-07 02:56:00,33.6,31.8,30.20,North,351,0.0,2.0,93,0.00,,---,0.00,VWS V14.01,2013-01-07 10:56:00,
2013-01-07 03:01:00,33.6,31.8,30.18,North,351,0.0,0.0,93,0.00,,---,0.00,VWS V14.01,2013-01-07 11:01:00,
2013-01-07 03:06:00,33.8,32.0,30.19,North,351,0.0,1.0,93,0.00,,---,0.00,VWS V14.01,2013-01-07 11:06:00,
2013-01-07 03:11:00,33.9,32.1,30.19,North,351,0.0,1.0,93,0.00,,---,0.00,VWS V14.01,2013-01-07 11:11:00,
2013-01-07 03:16:00,33.9,32.1,30.19,North,351,0.0,2.0,93,0.00,,---,0.00,VWS V14.01,2013-01-07 11:16:00,
2013-01-07 03:21:00,33.9,32.1,30.19,North,351,0.0,2.0,93,0.00,,---,0.00,VWS V14.01,2013-01-07 11:21:00,
2013-01-07 03:27:00,33.9,32.1,30.20,North,351,0.0,2.0,93,0.00,,---,0.00,VWS V14.01,2013-01-07 11:27:00,
2013-01-07 03:31:00,33.7,31.9,30.19,North,351,0.0,0.0,93,0.00,,---,0.00,VWS V14.01,2013-01-07 11:31:00,
2013-01-07 03:37:00,33.7,31.9,30.19,North,351,0.0,1.0,93,0.00,,---,0.00,VWS V14.01,2013-01-07 11:37:00,
2013-01-07 03:42:00,33.6,31.8,30.19,North,351,0.0,1.0,93,0.00,,---,0.00,VWS V14.01,2013-01-07 11:42:00,
2013-01-07 03:47:00,33.5,31.7,30.19,North,351,0.0,1.0,93,0.00,,---,0.00,VWS V14.01,2013-01-07 11:47:00,
2013-01-07 03:52:00,33.4,31.6,30.19,North,351,0.0,1.0,93,0.00,,---,0.00,VWS V14.01,2013-01-07 11:52:00,
2013-01-07 03:57:00,33.5,31.7,30.18,North,351,0.0,1.0,93,0.00,,---,0.00,VWS V14.01,2013-01-07 11:57:00,
2013-01-07 04:02:00,33.3,31.5,30.18,North,351,0.0,1.0,93,0.00,,---,0.00,VWS V14.01,2013-01-07 12:02:00,
2013-01-07 04:07:00,33.3,31.5,30.18,North,351,0.0,2.0,93,0.00,,---,0.00,VWS V14.01,2013-01-07 12:07:00,
2013-01-07 04:12:00,33.2,31.4,30.18,North,351,0.0,2.0,93,0.00,,---,0.00,VWS V14.01,2013-01-07 12:12:00,
2013-01-07 04:17:00,33.0,31.2,30.19,North,351,0.0,2.0,93,0.00,,---,0.00,VWS V14.01,2013-01-07 12:17:00,
2013-01-07 04:22:00,32.9,30.8,30.19,North,351,0.0,2.0,92,0.00,,---,0.00,VWS V14.01,2013-01-07 12:22:00,
2013-01-07 04:27:00,32.7,30.9,30.19,North,351,1.0,2.0,93,0.00,,---,0.00,VWS V14.01,2013-01-07 12:27:00,
2013-01-07 04:32:00,32.7,30.9,30.19,North,351,0.0,2.0,93,0.00,,---,0.00,VWS V14.01,2013-01-07 12:32:00,
2013-01-07 04:37:00,32.9,31.4,30.20,North,351,0.0,2.0,94,0.00,,---,0.00,VWS V14.01,2013-01-07 12:37:00,
2013-01-07 04:42:00,32.8,31.3,30.20,North,351,0.0,2.0,94,0.00,,---,0.00,VWS V14.01,2013-01-07 12:42:00,
2013-01-07 04:48:00,33.1,31.3,30.20,North,351,0.0,3.0,93,0.00,,---,0.00,VWS V14.01,2013-01-07 12:48:00,
2013-01-07 04:53:00,33.1,31.6,30.20,North,351,1.0,3.0,94,0.00,,---,0.00,VWS V14.01,2013-01-07 12:53:00,
2013-01-07 04:58:00,33.2,31.4,30.20,North,351,0.0,3.0,93,0.00,,---,0.00,VWS V14.01,2013-01-07 12:58:00,
2013-01-07 05:03:00,33.2,31.7,30.18,North,351,0.0,1.0,94,0.00,,---,0.00,VWS V14.01,2013-01-07 13:03:00,
2013-01-07 05:08:00,33.2,31.4,30.18,North,351,0.0,1.0,93,0.00,,---,0.00,VWS V14.01,2013-01-07 13:08:00,
2013-01-07 05:13:00,33.2,31.4,30.18,North,351,0.0,2.0,93,0.00,,---,0.00,VWS V14.01,2013-01-07 13:13:00,
2013-01-07 05:18:00,33.2,31.7,30.18,North,351,0.0,2.0,94,0.00,,---,0.00,VWS V14.01,2013-01-07 13:18:00,
2013-01-07 05:23:00,33.2,31.7,30.18,North,351,0.0,2.0,94,0.00,,---,0.00,VWS V14.01,2013-01-07 13:23:00,
2013-01-07 05:28:00,33.2,31.7,30.18,North,351,0.0,2.0,94,0.00,,---,0.00,VWS V14.01,2013-01-07 13:28:00,
2013-01-07 05:33:00,33.2,31.7,30.18,North,351,0.0,1.0,94,0.00,,---,0.00,VWS V14.01,2013-01-07 13:33:00,
2013-01-07 05:38:00,33.3,31.5,30.19,North,351,0.0,3.0,93,0.00,,---,0.00,VWS V14.01,2013-01-07 13:38:00,
2013-01-07 05:43:00,33.3,31.8,30.20,North,351,1.0,3.0,94,0.00,,---,0.00,VWS V14.01,2013-01-07 13:43:00,
2013-01-07 05:48:00,33.3,31.8,30.20,North,351,0.0,3.0,94,0.00,,---,0.00,VWS V14.01,2013-01-07 13:48:00,
2013-01-07 05:53:00,33.3,31.8,30.20,North,351,0.0,3.0,94,0.00,,---,0.00,VWS V14.01,2013-01-07 13:53:00,
2013-01-07 05:58:00,33.3,31.8,30.20,North,351,0.0,3.0,94,0.00,,---,0.00,VWS V14.01,2013-01-07 13:58:00,
2013-01-07 06:03:00,33.1,31.6,30.19,North,351,1.0,2.0,94,0.00,,---,0.00,VWS V14.01,2013-01-07 14:03:00,
2013-01-07 06:08:00,33.2,31.7,30.21,North,351,0.0,2.0,94,0.00,,---,0.00,VWS V14.01,2013-01-07 14:08:00,
2013-01-07 06:13:00,33.2,31.7,30.20,North,351,0.0,2.0,94,0.00,,---,0.00,VWS V14.01,2013-01-07 14:13:00,
2013-01-07 06:18:00,33.1,31.6,30.19,North,351,0.0,2.0,94,0.00,,---,0.00,VWS V14.01,2013-01-07 14:18:00,
2013-01-07 06:24:00,33.1,31.6,30.18,North,351,0.0,2.0,94,0.00,,---,0.00,VWS V14.01,2013-01-07 14:24:00,
2013-01-07 06:29:00,32.9,31.4,30.20,North,351,0.0,2.0,94,0.00,,---,0.00,VWS V14.01,2013-01-07 14:29:00,
2013-01-07 06:34:00,33.0,31.5,30.19,North,351,0.0,1.0,94,0.00,,---,0.00,VWS V14.01,2013-01-07 14:34:00,
2013-01-07 06:39:00,32.9,31.4,30.20,North,351,0.0,1.0,94,0.00,,---,0.00,VWS V14.01,2013-01-07 14:39:00,
2013-01-07 06:44:00,33.0,31.5,30.22,North,351,0.0,3.0,94,0.00,,---,0.00,VWS V14.01,2013-01-07 14:44:00,
2013-01-07 06:49:00,33.1,31.6,30.19,North,351,0.0,3.0,94,0.00,,---,0.00,VWS V14.01,2013-01-07 14:49:00,
2013-01-07 06:54:00,33.0,31.5,30.22,North,351,0.0,3.0,94,0.00,,---,0.00,VWS V14.01,2013-01-07 14:54:00,
2013-01-07 06:59:00,33.2,31.7,30.21,North,351,0.0,3.0,94,0.00,,---,0.00,VWS V14.01,2013-01-07 14:59:00,
2013-01-07 07:04:00,33.2,31.7,30.21,North,351,0.0,0.0,94,0.00,,---,0.00,VWS V14.01,2013-01-07 15:04:00,
2013-01-07 07:09:00,33.2,31.7,30.21,North,351,0.0,0.0,94,0.00,,---,0.00,VWS V14.01,2013-01-07 15:09:00,
2013-01-07 07:14:00,33.2,31.7,30.22,North,351,0.0,1.0,94,0.00,,---,0.00,VWS V14.01,2013-01-07 15:14:00,
2013-01-07 07:19:00,33.1,31.6,30.22,North,351,0.0,1.0,94,0.00,,---,0.00,VWS V14.01,2013-01-07 15:19:00,
2013-01-07 07:24:00,33.2,31.7,30.20,North,351,0.0,1.0,94,0.00,,---,0.00,VWS V14.01,2013-01-07 15:24:00,
2013-01-07 07:29:00,33.3,31.8,30.21,North,351,0.0,2.0,94,0.00,,---,0.00,VWS V14.01,2013-01-07 15:29:00,
2013-01-07 07:34:00,33.3,31.8,30.23,North,351,0.0,2.0,94,0.00,,---,0.00,VWS V14.01,2013-01-07 15:34:00,
2013-01-07 07:39:00,33.5,32.0,30.22,North,351,2.0,2.0,94,0.00,,---,0.00,VWS V14.01,2013-01-07 15:39:00,
2013-01-07 07:44:00,33.4,31.9,30.22,North,351,0.0,3.0,94,0.00,,---,0.00,VWS V14.01,2013-01-07 15:44:00,
2013-01-07 07:49:00,33.6,32.1,30.23,North,351,0.0,3.0,94,0.00,,---,0.00,VWS V14.01,2013-01-07 15:49:00,
2013-01-07 07:55:00,33.7,32.2,30.22,North,351,0.0,3.0,94,0.00,,---,0.00,VWS V14.01,2013-01-07 15:55:00,
2013-01-07 08:00:00,33.7,32.2,30.22,North,351,0.0,3.0,94,0.00,,---,0.00,VWS V14.01,2013-01-07 16:00:00,
2013-01-07 08:05:00,33.7,32.2,30.23,North,351,0.0,0.0,94,0.00,,---,0.00,VWS V14.01,2013-01-07 16:05:00,
2013-01-07 08:10:00,33.6,32.1,30.21,North,351,0.0,2.0,94,0.00,,---,0.00,VWS V14.01,2013-01-07 16:10:00,
2013-01-07 08:15:00,33.7,32.2,30.23,North,351,0.0,2.0,94,0.00,,---,0.00,VWS V14.01,2013-01-07 16:15:00,
2013-01-07 08:20:00,33.9,32.4,30.22,North,351,0.0,3.0,94,0.00,,---,0.00,VWS V14.01,2013-01-07 16:20:00,
2013-01-07 08:25:00,34.0,32.5,30.23,North,351,0.0,3.0,94,0.00,,---,0.00,VWS V14.01,2013-01-07 16:25:00,
2013-01-07 08:30:00,34.2,32.7,30.23,North,351,0.0,0.0,94,0.00,,---,0.00,VWS V14.01,2013-01-07 16:30:00,
2013-01-07 08:35:00,34.3,32.8,30.24,North,351,0.0,0.0,94,0.00,,---,0.00,VWS V14.01,2013-01-07 16:35:00,
2013-01-07 08:40:00,34.4,32.9,30.24,North,351,0.0,2.0,94,0.00,,---,0.00,VWS V14.01,2013-01-07 16:40:00,
2013-01-07 08:45:00,34.6,33.0,30.23,North,351,0.0,2.0,94,0.00,,---,0.00,VWS V14.01,2013-01-07 16:45:00,
2013-01-07 08:50:00,34.7,33.4,30.22,North,351,1.0,2.0,95,0.00,,---,0.00,VWS V14.01,2013-01-07 16:50:00,
2013-01-07 08:55:00,34.9,33.6,30.23,North,351,0.0,3.0,95,0.00,,---,0.00,VWS V14.01,2013-01-07 16:55:00,
2013-01-07 09:00:00,35.0,33.7,30.23,North,351,0.0,1.0,95,0.00,,---,0.00,VWS V14.01,2013-01-07 17:00:00,
2013-01-07 09:05:00,35.4,33.8,30.24,North,351,0.0,3.0,94,0.00,,---,0.00,VWS V14.01,2013-01-07 17:05:00,
2013-01-07 09:10:00,35.5,34.0,30.24,North,351,0.0,3.0,94,0.00,,---,0.00,VWS V14.01,2013-01-07 17:10:00,
2013-01-07 09:15:00,35.6,34.3,30.24,North,351,0.0,3.0,95,0.00,,---,0.00,VWS V14.01,2013-01-07 17:15:00,
2013-01-07 09:20:00,35.8,34.5,30.25,North,351,0.0,3.0,95,0.00,,---,0.00,VWS V14.01,2013-01-07 17:20:00,
2013-01-07 09:26:00,36.1,34.8,30.24,North,351,0.0,3.0,95,0.00,,---,0.00,VWS V14.01,2013-01-07 17:26:00,
2013-01-07 09:31:00,36.3,35.0,30.24,North,351,0.0,0.0,95,0.00,,---,0.00,VWS V14.01,2013-01-07 17:31:00,
2013-01-07 09:36:00,36.5,35.2,30.24,North,351,0.0,2.0,95,0.00,,---,0.00,VWS V14.01,2013-01-07 17:36:00,
2013-01-07 09:41:00,36.9,35.6,30.25,North,351,0.0,3.0,95,0.00,,---,0.00,VWS V14.01,2013-01-07 17:41:00,
2013-01-07 09:46:00,37.2,35.9,30.23,North,351,0.0,3.0,95,0.00,,---,0.00,VWS V14.01,2013-01-07 17:46:00,
2013-01-07 09:51:00,37.5,36.2,30.24,North,351,0.0,3.0,95,0.00,,---,0.00,VWS V14.01,2013-01-07 17:51:00,
2013-01-07 09:56:00,37.9,36.6,30.24,North,351,1.0,3.0,95,0.00,,---,0.00,VWS V14.01,2013-01-07 17:56:00,
2013-01-07 10:01:00,38.0,37.0,30.24,North,351,0.0,0.0,96,0.00,,---,0.00,VWS V14.01,2013-01-07 18:01:00,
2013-01-07 10:06:00,38.4,37.1,30.24,North,351,0.0,3.0,95,0.00,,---,0.00,VWS V14.01,2013-01-07 18:06:00,
2013-01-07 10:11:00,38.5,37.2,30.24,North,351,0.0,3.0,95,0.00,,---,0.00,VWS V14.01,2013-01-07 18:11:00,
2013-01-07 10:16:00,38.6,37.6,30.24,North,351,0.0,3.0,96,0.00,,---,0.00,VWS V14.01,2013-01-07 18:16:00,
2013-01-07 10:21:00,39.1,37.8,30.25,North,351,0.0,3.0,95,0.00,,---,0.00,VWS V14.01,2013-01-07 18:21:00,
2013-01-07 10:26:00,39.8,38.5,30.25,North,351,2.0,3.0,95,0.00,,---,0.00,VWS V14.01,2013-01-07 18:26:00,
2013-01-07 10:31:00,40.3,39.0,30.24,North,351,0.0,2.0,95,0.00,,---,0.00,VWS V14.01,2013-01-07 18:31:00,
2013-01-07 10:36:00,40.6,39.5,30.25,North,351,0.0,2.0,96,0.00,,---,0.00,VWS V14.01,2013-01-07 18:36:00,
2013-01-07 10:41:00,40.9,39.8,30.25,North,351,2.0,3.0,96,0.00,,---,0.00,VWS V14.01,2013-01-07 18:41:00,
2013-01-07 10:46:00,41.3,40.2,30.25,North,351,0.0,3.0,96,0.00,,---,0.00,VWS V14.01,2013-01-07 18:46:00,
2013-01-07 10:51:00,41.4,40.3,30.26,North,351,2.0,3.0,96,0.00,,---,0.00,VWS V14.01,2013-01-07 18:51:00,
2013-01-07 10:57:00,41.6,40.5,30.24,North,351,3.0,3.0,96,0.00,,---,0.00,VWS V14.01,2013-01-07 18:57:00,
2013-01-07 11:02:00,41.7,40.4,30.23,North,351,2.0,3.0,95,0.00,,---,0.00,VWS V14.01,2013-01-07 19:02:00,
2013-01-07 11:07:00,41.9,40.6,30.26,North,351,4.0,5.0,95,0.00,,---,0.00,VWS V14.01,2013-01-07 19:07:00,
2013-01-07 11:12:00,42.2,41.1,30.22,North,351,1.0,5.0,96,0.00,,---,0.00,VWS V14.01,2013-01-07 19:12:00,
2013-01-07 11:17:00,42.4,41.3,30.25,North,351,2.0,5.0,96,0.00,,---,0.00,VWS V14.01,2013-01-07 19:17:00,
2013-01-07 11:22:00,42.5,41.4,30.23,North,351,0.0,5.0,96,0.00,,---,0.00,VWS V14.01,2013-01-07 19:22:00,
2013-01-07 11:27:00,42.5,41.2,30.23,North,351,1.0,5.0,95,0.00,,---,0.00,VWS V14.01,2013-01-07 19:27:00,
2013-01-07 11:32:00,42.9,41.8,30.22,North,351,0.0,3.0,96,0.00,,---,0.00,VWS V14.01,2013-01-07 19:32:00,
2013-01-07 11:37:00,43.2,42.1,30.22,North,351,1.0,3.0,96,0.00,,---,0.00,VWS V14.01,2013-01-07 19:37:00,
2013-01-07 11:42:00,43.5,42.2,30.20,North,351,0.0,3.0,95,0.00,,---,0.00,VWS V14.01,2013-01-07 19:42:00,
2013-01-07 11:47:00,43.9,42.6,30.20,North,351,0.0,4.0,95,0.00,,---,0.00,VWS V14.01,2013-01-07 19:47:00,
2013-01-07 11:52:00,44.3,43.2,30.18,North,351,0.0,4.0,96,0.00,,---,0.00,VWS V14.01,2013-01-07 19:52:00,
2013-01-07 11:57:00,44.6,43.5,30.20,North,351,1.0,4.0,96,0.00,,---,0.00,VWS V14.01,2013-01-07 19:57:00,
2013-01-07 12:02:00,45.0,43.9,30.22,North,351,3.0,3.0,96,0.00,,---,0.00,VWS V14.01,2013-01-07 20:02:00,
2013-01-07 12:07:00,45.3,44.0,30.20,North,351,0.0,3.0,95,0.00,,---,0.00,VWS V14.01,2013-01-07 20:07:00,
2013-01-07 12:13:00,45.4,43.8,30.20,North,351,0.0,3.0,94,0.00,,---,0.00,VWS V14.01,2013-01-07 20:13:00,
2013-01-07 12:18:00,45.7,44.1,30.19,North,351,0.0,3.0,94,0.00,,---,0.00,VWS V14.01,2013-01-07 20:18:00,
2013-01-07 12:19:00,45.8,44.5,30.20,North,351,0.0,3.0,95,0.00,,---,0.00,VWS V14.01,2013-01-07 20:19:00,
2013-01-07 12:24:00,46.3,44.7,30.19,North,351,1.0,3.0,94,0.00,,---,0.00,VWS V14.01,2013-01-07 20:24:00,
2013-01-07 12:29:00,46.6,45.0,30.19,North,351,0.0,3.0,94,0.00,,---,0.00,VWS V14.01,2013-01-07 20:29:00,
2013-01-07 12:34:00,47.0,45.1,30.18,North,351,0.0,2.0,93,0.00,,---,0.00,VWS V14.01,2013-01-07 20:34:00,
2013-01-07 12:39:00,47.3,45.1,30.21,North,351,0.0,2.0,92,0.00,,---,0.00,VWS V14.01,2013-01-07 20:39:00,
2013-01-07 12:44:00,48.0,45.5,30.20,North,351,0.0,2.0,91,0.00,,---,0.00,VWS V14.01,2013-01-07 20:44:00,
2013-01-07 12:49:00,48.6,45.5,30.20,North,351,1.0,4.0,89,0.00,,---,0.00,VWS V14.01,2013-01-07 20:49:00,
2013-01-07 12:55:00,49.2,45.5,30.19,North,351,0.0,4.0,87,0.00,,---,0.00,VWS V14.01,2013-01-07 20:55:00,
2013-01-07 13:00:00,50.3,46.3,30.19,North,351,0.0,4.0,86,0.00,,---,0.00,VWS V14.01,2013-01-07 21:00:00,
2013-01-07 13:05:00,50.5,45.8,30.20,North,351,0.0,2.0,84,0.00,,---,0.00,VWS V14.01,2013-01-07 21:05:00,
2013-01-07 13:10:00,51.0,45.4,30.18,North,351,0.0,3.0,81,0.00,,---,0.00,VWS V14.01,2013-01-07 21:10:00,
2013-01-07 13:15:00,51.7,45.7,30.17,NNW,344,0.0,3.0,80,0.00,,---,0.00,VWS V14.01,2013-01-07 21:15:00,
2013-01-07 13:20:00,52.3,46.0,30.19,NNW,344,2.0,4.0,79,0.00,,---,0.00,VWS V14.01,2013-01-07 21:20:00,
2013-01-07 13:25:00,52.7,45.7,30.15,NNW,344,1.0,4.0,77,0.00,,---,0.00,VWS V14.01,2013-01-07 21:25:00,
2013-01-07 13:30:00,52.9,45.5,30.17,NNW,344,1.0,1.0,76,0.00,,---,0.00,VWS V14.01,2013-01-07 21:30:00,
2013-01-07 13:35:00,53.0,46.0,30.19,NNW,344,2.0,3.0,77,0.00,,---,0.00,VWS V14.01,2013-01-07 21:35:00,
2013-01-07 13:40:00,53.3,45.9,30.18,NNW,344,0.0,3.0,76,0.00,,---,0.00,VWS V14.01,2013-01-07 21:40:00,
2013-01-07 13:45:00,53.6,46.2,30.18,NNW,344,0.0,3.0,76,0.00,,---,0.00,VWS V14.01,2013-01-07 21:45:00,
2013-01-07 13:50:00,53.9,46.2,30.18,NNW,345,1.0,3.0,75,0.00,,---,0.00,VWS V14.01,2013-01-07 21:50:00,
2013-01-07 13:55:00,54.3,46.9,30.18,NW,326,2.0,5.0,76,0.00,,---,0.00,VWS V14.01,2013-01-07 21:55:00,
2013-01-07 14:00:00,54.9,46.4,30.18,NW,325,0.0,2.0,73,0.00,,---,0.00,VWS V14.01,2013-01-07 22:00:00,
2013-01-07 14:05:00,55.0,46.9,30.14,NW,324,0.0,4.0,74,0.00,,---,0.00,VWS V14.01,2013-01-07 22:05:00,
2013-01-07 14:11:00,55.2,46.7,30.16,NW,324,0.0,4.0,73,0.00,,---,0.00,VWS V14.01,2013-01-07 22:11:00,
2013-01-07 14:16:00,55.2,46.7,30.15,NW,325,2.0,4.0,73,0.00,,---,0.00,VWS V14.01,2013-01-07 22:16:00,
2013-01-07 14:21:00,55.4,46.2,30.18,NW,324,1.0,4.0,71,0.00,,---,0.00,VWS V14.01,2013-01-07 22:21:00,
2013-01-07 14:26:00,55.6,46.7,30.16,NW,324,2.0,4.0,72,0.00,,---,0.00,VWS V14.01,2013-01-07 22:26:00,
2013-01-07 14:31:00,55.7,46.8,30.15,NW,324,0.0,2.0,72,0.00,,---,0.00,VWS V14.01,2013-01-07 22:31:00,
2013-01-07 14:36:00,55.7,46.8,30.18,NW,325,3.0,4.0,72,0.00,,---,0.00,VWS V14.01,2013-01-07 22:36:00,
2013-01-07 14:41:00,56.1,47.2,30.17,NW,325,0.0,4.0,72,0.00,,---,0.00,VWS V14.01,2013-01-07 22:41:00,
2013-01-07 14:46:00,56.1,47.2,30.18,NW,324,2.0,4.0,72,0.00,,---,0.00,VWS V14.01,2013-01-07 22:46:00,
2013-01-07 14:51:00,56.2,47.3,30.18,NW,324,0.0,4.0,72,0.00,,---,0.00,VWS V14.01,2013-01-07 22:51:00,
2013-01-07 14:56:00,56.2,46.9,30.18,NW,324,1.0,4.0,71,0.00,,---,0.00,VWS V14.01,2013-01-07 22:56:00,
2013-01-07 15:02:00,56.2,47.3,30.16,NW,325,1.0,2.0,72,0.00,,---,0.00,VWS V14.01,2013-01-07 23:02:00,
2013-01-07 15:07:00,56.2,46.9,30.17,NW,325,0.0,3.0,71,0.00,,---,0.00,VWS V14.01,2013-01-07 23:07:00,
2013-01-07 15:12:00,56.3,47.0,30.16,NW,324,2.0,3.0,71,0.00,,---,0.00,VWS V14.01,2013-01-07 23:12:00,
2013-01-07 15:17:00,56.1,47.2,30.17,NW,325,0.0,3.0,72,0.00,,---,0.00,VWS V14.01,2013-01-07 23:17:00,
2013-01-07 15:22:00,56.0,47.1,30.15,NW,325,2.0,3.0,72,0.00,,---,0.00,VWS V14.01,2013-01-07 23:22:00,
2013-01-07 15:27:00,56.2,47.3,30.15,NW,324,2.0,3.0,72,0.00,,---,0.00,VWS V14.01,2013-01-07 23:27:00,
2013-01-07 15:32:00,55.9,47.0,30.16,NW,325,0.0,0.0,72,0.00,,---,0.00,VWS V14.01,2013-01-07 23:32:00,
2013-01-07 15:37:00,55.8,46.9,30.18,NW,324,1.0,3.0,72,0.00,,---,0.00,VWS V14.01,2013-01-07 23:37:00,
2013-01-07 15:42:00,55.6,46.7,30.14,NW,324,0.0,3.0,72,0.00,,---,0.00,VWS V14.01,2013-01-07 23:42:00,
2013-01-07 15:47:00,55.5,47.0,30.16,NW,325,0.0,3.0,73,0.00,,---,0.00,VWS V14.01,2013-01-07 23:47:00,
2013-01-07 15:52:00,55.5,47.0,30.17,NW,324,0.0,3.0,73,0.00,,---,0.00,VWS V14.01,2013-01-07 23:52:00,
2013-01-07 15:57:00,55.4,46.9,30.17,NW,324,0.0,3.0,73,0.00,,---,0.00,VWS V14.01,2013-01-07 23:57:00,
2013-01-07 16:03:00,55.4,47.3,30.16,NW,324,0.0,0.0,74,0.00,,---,0.00,VWS V14.01,2013-01-08 00:03:00,
2013-01-07 16:08:00,55.2,47.1,30.15,NW,324,0.0,0.0,74,0.00,,---,0.00,VWS V14.01,2013-01-08 00:08:00,
2013-01-07 16:13:00,55.0,47.2,30.14,NW,325,0.0,0.0,75,0.00,,---,0.00,VWS V14.01,2013-01-08 00:13:00,
2013-01-07 16:18:00,54.9,47.1,30.14,NW,324,0.0,0.0,75,0.00,,---,0.00,VWS V14.01,2013-01-08 00:18:00,
2013-01-07 16:23:00,54.7,47.3,30.17,NW,324,0.0,0.0,76,0.00,,---,0.00,VWS V14.01,2013-01-08 00:23:00,
2013-01-07 16:28:00,54.6,46.5,30.15,NW,324,0.0,2.0,74,0.00,,---,0.00,VWS V14.01,2013-01-08 00:28:00,
2013-01-07 16:33:00,54.3,46.6,30.14,NW,325,0.0,0.0,75,0.00,,---,0.00,VWS V14.01,2013-01-08 00:33:00,
2013-01-07 16:38:00,54.2,46.5,30.17,NW,324,0.0,0.0,75,0.00,,---,0.00,VWS V14.01,2013-01-08 00:38:00,
2013-01-07 16:43:00,53.9,46.2,30.17,NW,325,0.0,0.0,75,0.00,,---,0.00,VWS V14.01,2013-01-08 00:43:00,
2013-01-07 16:48:00,53.6,45.9,30.15,NW,324,0.0,0.0,75,0.00,,---,0.00,VWS V14.01,2013-01-08 00:48:00,
2013-01-07 16:53:00,53.5,46.1,30.14,NW,324,0.0,0.0,76,0.00,,---,0.00,VWS V14.01,2013-01-08 00:53:00,
2013-01-07 16:59:00,53.0,46.0,30.16,NW,325,0.0,1.0,77,0.00,,---,0.00,VWS V14.01,2013-01-08 00:59:00,
2013-01-07 17:04:00,52.7,45.7,30.16,NW,324,0.0,1.0,77,0.00,,---,0.00,VWS V14.01,2013-01-08 01:04:00,
2013-01-07 17:09:00,52.2,45.2,30.14,NW,325,0.0,1.0,77,0.00,,---,0.00,VWS V14.01,2013-01-08 01:09:00,
2013-01-07 17:14:00,52.0,45.4,30.18,NW,324,0.0,1.0,78,0.00,,---,0.00,VWS V14.01,2013-01-08 01:14:00,
2013-01-07 17:19:00,51.7,44.7,30.17,NW,325,0.0,2.0,77,0.00,,---,0.00,VWS V14.01,2013-01-08 01:19:00,
2013-01-07 17:24:00,51.4,44.8,30.16,NW,324,1.0,2.0,78,0.00,,---,0.00,VWS V14.01,2013-01-08 01:24:00,
2013-01-07 17:29:00,51.1,44.5,30.16,NW,325,0.0,2.0,78,0.00,,---,0.00,VWS V14.01,2013-01-08 01:29:00,
2013-01-07 17:34:00,50.8,44.5,30.16,NW,324,2.0,3.0,79,0.00,,---,0.00,VWS V14.01,2013-01-08 01:34:00,
2013-01-07 17:39:00,50.8,44.5,30.14,North,351,2.0,4.0,79,0.00,,---,0.00,VWS V14.01,2013-01-08 01:39:00,
2013-01-07 17:44:00,50.8,44.5,30.16,North,351,1.0,5.0,79,0.00,,---,0.00,VWS V14.01,2013-01-08 01:44:00,
2013-01-07 17:49:00,50.8,44.5,30.16,North,351,2.0,5.0,79,0.00,,---,0.00,VWS V14.01,2013-01-08 01:49:00,
2013-01-07 17:54:00,50.6,44.7,30.17,North,351,1.0,5.0,80,0.00,,---,0.00,VWS V14.01,2013-01-08 01:54:00,
2013-01-07 17:59:00,50.6,44.7,30.17,North,351,0.0,5.0,80,0.00,,---,0.00,VWS V14.01,2013-01-08 01:59:00,
2013-01-07 18:04:00,50.4,44.1,30.16,North,351,3.0,5.0,79,0.00,,---,0.00,VWS V14.01,2013-01-08 02:04:00,
2013-01-07 18:10:00,50.3,44.4,30.13,North,351,2.0,5.0,80,0.00,,---,0.00,VWS V14.01,2013-01-08 02:10:00,
2013-01-07 18:15:00,50.0,44.1,30.14,North,351,0.0,5.0,80,0.00,,---,0.00,VWS V14.01,2013-01-08 02:15:00,
2013-01-07 18:20:00,49.6,44.0,30.14,NNW,347,1.0,5.0,81,0.00,,---,0.00,VWS V14.01,2013-01-08 02:20:00,
2013-01-07 18:25:00,49.5,43.9,30.14,NNW,347,1.0,5.0,81,0.00,,---,0.00,VWS V14.01,2013-01-08 02:25:00,
2013-01-07 18:30:00,49.4,43.8,30.17,NNW,347,0.0,0.0,81,0.00,,---,0.00,VWS V14.01,2013-01-08 02:30:00,
2013-01-07 18:35:00,49.3,44.0,30.17,NNW,347,0.0,2.0,82,0.00,,---,0.00,VWS V14.01,2013-01-08 02:35:00,
2013-01-07 18:40:00,49.2,43.6,30.17,NNW,347,1.0,5.0,81,0.00,,---,0.00,VWS V14.01,2013-01-08 02:40:00,
2013-01-07 18:45:00,49.1,43.8,30.16,NNW,347,0.0,5.0,82,0.00,,---,0.00,VWS V14.01,2013-01-08 02:45:00,
2013-01-07 18:50:00,48.8,43.6,30.15,NNW,347,2.0,5.0,82,0.00,,---,0.00,VWS V14.01,2013-01-08 02:50:00,
2013-01-07 18:55:00,48.6,43.4,30.16,NNW,347,0.0,5.0,82,0.00,,---,0.00,VWS V14.01,2013-01-08 02:55:00,
2013-01-07 19:00:00,48.5,43.6,30.16,NNW,347,0.0,0.0,83,0.00,,---,0.00,VWS V14.01,2013-01-08 03:00:00,
2013-01-07 19:05:00,48.0,43.1,30.14,NNW,347,0.0,1.0,83,0.00,,---,0.00,VWS V14.01,2013-01-08 03:05:00,
2013-01-07 19:10:00,47.7,42.8,30.17,NNW,347,1.0,3.0,83,0.00,,---,0.00,VWS V14.01,2013-01-08 03:10:00,
2013-01-07 19:15:00,47.6,43.0,30.15,NNW,347,1.0,3.0,84,0.00,,---,0.00,VWS V14.01,2013-01-08 03:15:00,
2013-01-07 19:20:00,47.4,43.1,30.15,NNW,347,2.0,4.0,85,0.00,,---,0.00,VWS V14.01,2013-01-08 03:20:00,
2013-01-07 19:25:00,47.3,43.0,30.15,NNW,347,0.0,4.0,85,0.00,,---,0.00,VWS V14.01,2013-01-08 03:25:00,
2013-01-07 19:31:00,47.0,42.7,30.17,NNW,347,0.0,0.0,85,0.00,,---,0.00,VWS V14.01,2013-01-08 03:31:00,
2013-01-07 19:36:00,46.9,42.6,30.17,NNW,347,0.0,2.0,85,0.00,,---,0.00,VWS V14.01,2013-01-08 03:36:00,
2013-01-07 19:41:00,46.8,42.5,30.17,NNW,347,0.0,2.0,85,0.00,,---,0.00,VWS V14.01,2013-01-08 03:41:00,
2013-01-07 19:46:00,46.6,42.3,30.15,NNW,348,0.0,2.0,85,0.00,,---,0.00,VWS V14.01,2013-01-08 03:46:00,
2013-01-07 19:51:00,46.4,42.1,30.15,NNW,348,0.0,3.0,85,0.00,,---,0.00,VWS V14.01,2013-01-08 03:51:00,
2013-01-07 19:56:00,46.3,42.0,30.16,NNW,347,0.0,3.0,85,0.00,,---,0.00,VWS V14.01,2013-01-08 03:56:00,
2013-01-07 20:01:00,46.1,41.8,30.17,NNW,347,0.0,1.0,85,0.00,,---,0.00,VWS V14.01,2013-01-08 04:01:00,
2013-01-07 20:06:00,45.9,42.0,30.18,NNW,347,0.0,1.0,86,0.00,,---,0.00,VWS V14.01,2013-01-08 04:06:00,
2013-01-07 20:11:00,45.7,41.8,30.18,NNW,347,1.0,2.0,86,0.00,,---,0.00,VWS V14.01,2013-01-08 04:11:00,
2013-01-07 20:16:00,45.4,41.5,30.16,NNW,347,1.0,2.0,86,0.00,,---,0.00,VWS V14.01,2013-01-08 04:16:00,
2013-01-07 20:21:00,45.3,41.4,30.18,NNW,347,0.0,2.0,86,0.00,,---,0.00,VWS V14.01,2013-01-08 04:21:00,
2013-01-07 20:26:00,45.2,41.3,30.15,NNW,347,0.0,2.0,86,0.00,,---,0.00,VWS V14.01,2013-01-08 04:26:00,
2013-01-07 20:31:00,45.0,41.1,30.19,NNW,347,2.0,5.0,86,0.00,,---,0.00,VWS V14.01,2013-01-08 04:31:00,
2013-01-07 20:36:00,44.8,41.5,30.16,NNW,347,0.0,5.0,88,0.00,,---,0.00,VWS V14.01,2013-01-08 04:36:00,
2013-01-07 20:41:00,44.5,40.9,30.19,NNW,347,0.0,5.0,87,0.00,,---,0.00,VWS V14.01,2013-01-08 04:41:00,
2013-01-07 20:46:00,44.4,41.1,30.18,NNW,347,2.0,5.0,88,0.00,,---,0.00,VWS V14.01,2013-01-08 04:46:00,
2013-01-07 20:51:00,44.3,41.0,30.16,NNW,348,1.0,5.0,88,0.00,,---,0.00,VWS V14.01,2013-01-08 04:51:00,
2013-01-07 20:57:00,44.3,41.0,30.19,NNW,348,0.0,5.0,88,0.00,,---,0.00,VWS V14.01,2013-01-08 04:57:00,
2013-01-07 21:00:00,44.1,41.1,30.18,NNW,348,0.0,5.0,89,0.00,,---,0.00,VWS V14.01,2013-01-08 05:00:00,
2013-01-07 21:03:00,44.2,41.2,30.17,NNW,347,0.0,2.0,89,0.00,,---,0.00,VWS V14.01,2013-01-08 05:03:00,
2013-01-07 21:05:00,44.2,41.2,30.17,NNW,347,1.0,2.0,89,0.00,,---,0.00,VWS V14.01,2013-01-08 05:05:00,
2013-01-07 21:10:00,43.9,40.9,30.19,NNW,347,1.0,3.0,89,0.00,,---,0.00,VWS V14.01,2013-01-08 05:10:00,
2013-01-07 21:15:00,43.8,40.8,30.17,NNW,347,1.0,3.0,89,0.00,,---,0.00,VWS V14.01,2013-01-08 05:15:00,
2013-01-07 21:20:00,43.7,40.7,30.16,NNW,347,0.0,3.0,89,0.00,,---,0.00,VWS V14.01,2013-01-08 05:20:00,
2013-01-07 21:25:00,43.6,40.6,30.17,NNW,348,2.0,3.0,89,0.00,,---,0.00,VWS V14.01,2013-01-08 05:25:00,
2013-01-07 21:30:00,43.6,40.6,30.18,NNW,347,0.0,1.0,89,0.00,,---,0.00,VWS V14.01,2013-01-08 05:30:00,
2013-01-07 21:35:00,43.6,40.6,30.19,NNW,347,0.0,2.0,89,0.00,,---,0.00,VWS V14.01,2013-01-08 05:35:00,
2013-01-07 21:40:00,43.3,40.3,30.18,NNW,347,2.0,3.0,89,0.00,,---,0.00,VWS V14.01,2013-01-08 05:40:00,
2013-01-07 21:45:00,43.2,40.2,30.17,NNW,348,0.0,3.0,89,0.00,,---,0.00,VWS V14.01,2013-01-08 05:45:00,
2013-01-07 21:50:00,43.0,40.0,30.18,NNW,347,1.0,3.0,89,0.00,,---,0.00,VWS V14.01,2013-01-08 05:50:00,
2013-01-07 21:55:00,42.9,39.9,30.19,NNW,347,0.0,3.0,89,0.00,,---,0.00,VWS V14.01,2013-01-08 05:55:00,
2013-01-07 22:00:00,42.6,39.6,30.15,NNW,347,0.0,1.0,89,0.00,,---,0.00,VWS V14.01,2013-01-08 06:00:00,
2013-01-07 22:05:00,42.4,39.4,30.16,NNW,348,0.0,2.0,89,0.00,,---,0.00,VWS V14.01,2013-01-08 06:05:00,
2013-01-07 22:11:00,42.3,39.3,30.17,NNW,347,0.0,2.0,89,0.00,,---,0.00,VWS V14.01,2013-01-08 06:11:00,
2013-01-07 22:16:00,42.3,39.3,30.17,NNW,347,0.0,3.0,89,0.00,,---,0.00,VWS V14.01,2013-01-08 06:16:00,
2013-01-07 22:21:00,42.2,39.5,30.16,NNW,347,2.0,3.0,90,0.00,,---,0.00,VWS V14.01,2013-01-08 06:21:00,
2013-01-07 22:26:00,42.0,39.3,30.15,NNW,347,1.0,3.0,90,0.00,,---,0.00,VWS V14.01,2013-01-08 06:26:00,
2013-01-07 22:31:00,41.9,39.2,30.16,NNW,347,0.0,1.0,90,0.00,,---,0.00,VWS V14.01,2013-01-08 06:31:00,
2013-01-07 22:36:00,41.9,39.2,30.16,NNW,348,0.0,3.0,90,0.00,,---,0.00,VWS V14.01,2013-01-08 06:36:00,
2013-01-07 22:41:00,41.8,39.1,30.18,NNW,347,0.0,3.0,90,0.00,,---,0.00,VWS V14.01,2013-01-08 06:41:00,
2013-01-07 22:46:00,41.5,38.8,30.17,NNW,347,2.0,3.0,90,0.00,,---,0.00,VWS V14.01,2013-01-08 06:46:00,
2013-01-07 22:51:00,41.5,38.8,30.15,NNW,347,1.0,3.0,90,0.00,,---,0.00,VWS V14.01,2013-01-08 06:51:00,
2013-01-07 22:56:00,41.3,38.6,30.17,NNW,347,2.0,4.0,90,0.00,,---,0.00,VWS V14.01,2013-01-08 06:56:00,
2013-01-07 23:01:00,41.4,38.7,30.17,NNW,347,0.0,3.0,90,0.00,,---,0.00,VWS V14.01,2013-01-08 07:01:00,
2013-01-07 23:06:00,41.4,39.0,30.19,NNW,347,3.0,3.0,91,0.00,,---,0.00,VWS V14.01,2013-01-08 07:06:00,
2013-01-07 23:11:00,41.5,39.3,30.17,NNW,347,0.0,3.0,92,0.00,,---,0.00,VWS V14.01,2013-01-08 07:11:00,
2013-01-07 23:16:00,41.3,39.2,30.19,NNW,347,0.0,4.0,92,0.00,,---,0.00,VWS V14.01,2013-01-08 07:16:00,
2013-01-07 23:21:00,41.4,39.2,30.17,NNW,347,4.0,4.0,92,0.00,,---,0.00,VWS V14.01,2013-01-08 07:21:00,
2013-01-07 23:26:00,41.3,39.2,30.16,NNW,348,0.0,4.0,92,0.00,,---,0.00,VWS V14.01,2013-01-08 07:26:00,
2013-01-07 23:31:00,41.1,38.7,30.17,NNW,347,0.0,1.0,91,0.00,,---,0.00,VWS V14.01,2013-01-08 07:31:00,
2013-01-07 23:37:00,41.2,39.1,30.18,NNW,347,0.0,1.0,92,0.00,,---,0.00,VWS V14.01,2013-01-08 07:37:00,
2013-01-07 23:42:00,41.0,38.9,30.19,NNW,347,1.0,2.0,92,0.00,,---,0.00,VWS V14.01,2013-01-08 07:42:00,
2013-01-07 23:47:00,41.1,38.7,30.17,NNW,347,0.0,3.0,91,0.00,,---,0.00,VWS V14.01,2013-01-08 07:47:00,
2013-01-07 23:52:00,40.9,38.8,30.18,NNW,347,0.0,3.0,92,0.00,,---,0.00,VWS V14.01,2013-01-08 07:52:00,
2013-01-07 23:57:00,40.9,38.8,30.19,NNW,348,0.0,3.0,92,0.00,,---,0.00,VWS V14.01,2013-01-08 07:57:00,